Time;durP1;ratioP1;P1;durP2;ratioP2;P2;SDS_P1;SDS_P2;PMS_P1;PMS_P2;Temp;Humidity;BMP_temperature;BMP_pressure;BME280_temperature;BME280_humidity;BME280_pressure;Samples;Min_cycle;Max_cycle;Signal;HPM_P1;HPM_P2
2023/04/23 00:00:17;;;;;;;30.00;16.63;;;;;;;9.13;68.82;100452.13;126843;1089;104264;-82
2023/04/23 00:03:09;;;;;;;30.50;16.37;;;;;;;9.03;69.15;100452.61;126935;1089;104175;-82
2023/04/23 00:05:38;;;;;;;27.77;15.97;;;;;;;8.97;68.84;100451.50;128237;1087;101650;-81
2023/04/23 00:08:11;;;;;;;27.10;16.20;;;;;;;8.93;69.43;100456.58;128377;1088;102589;-82
2023/04/23 00:10:41;;;;;;;30.57;16.87;;;;;;;8.91;68.75;100452.98;128371;1087;102073;-80
2023/04/23 00:13:11;;;;;;;28.40;15.75;;;;;;;8.88;68.95;100453.77;128049;1089;102906;-78
2023/04/23 00:15:41;;;;;;;29.47;16.10;;;;;;;8.87;69.09;100453.70;126823;1089;104168;-82
2023/04/23 00:18:09;;;;;;;29.80;16.40;;;;;;;8.86;68.98;100450.17;127118;1089;104171;-82
2023/04/23 00:20:38;;;;;;;28.40;15.83;;;;;;;8.87;68.83;100445.86;126152;1089;104366;-81
2023/04/23 00:23:07;;;;;;;27.40;15.40;;;;;;;8.88;69.41;100451.16;126007;1089;102746;-80
2023/04/23 00:25:36;;;;;;;27.13;14.97;;;;;;;8.90;69.10;100454.72;126014;1089;104270;-82
2023/04/23 00:28:04;;;;;;;27.70;15.63;;;;;;;8.88;69.25;100455.47;126114;1089;104248;-83
2023/04/23 00:30:33;;;;;;;28.67;16.23;;;;;;;8.83;69.89;100444.81;126013;1089;104235;-82
2023/04/23 00:33:02;;;;;;;29.03;16.00;;;;;;;8.78;69.32;100449.85;126397;1089;104287;-82
2023/04/23 00:35:31;;;;;;;27.63;16.00;;;;;;;8.72;69.34;100449.59;126464;1089;104191;-82
2023/04/23 00:37:59;;;;;;;28.07;15.83;;;;;;;8.67;70.20;100448.52;126682;1089;102063;-82
2023/04/23 00:40:28;;;;;;;28.30;15.63;;;;;;;8.61;70.26;100456.98;126359;1089;102073;-82
2023/04/23 00:42:57;;;;;;;29.45;16.20;;;;;;;8.58;69.75;100445.50;126474;1089;102111;-82
2023/04/23 00:45:25;;;;;;;29.73;14.97;;;;;;;8.54;70.37;100454.03;126512;1089;104236;-82
2023/04/23 00:47:55;;;;;;;28.00;15.27;;;;;;;8.52;70.77;100445.23;126164;1089;104149;-82
2023/04/23 00:50:24;;;;;;;28.47;15.43;;;;;;;8.49;70.21;100445.98;126399;1089;104235;-82
2023/04/23 00:52:53;;;;;;;27.67;15.13;;;;;;;8.44;70.85;100453.64;126431;1089;104280;-82
2023/04/23 00:55:21;;;;;;;28.73;15.47;;;;;;;8.40;71.09;100453.44;126065;1089;104158;-81
2023/04/23 00:57:51;;;;;;;31.27;16.33;;;;;;;8.38;70.18;100458.59;126408;1089;104219;-81
2023/04/23 01:00:19;;;;;;;32.40;15.40;;;;;;;8.37;70.69;100455.91;126336;1089;104331;-82
2023/04/23 01:02:49;;;;;;;30.77;16.03;;;;;;;8.34;71.04;100455.78;126131;1089;104149;-81
2023/04/23 01:05:19;;;;;;;29.43;16.47;;;;;;;8.30;70.72;100453.84;125675;1089;104228;-83
2023/04/23 01:07:48;;;;;;;30.17;16.30;;;;;;;8.26;71.32;100458.94;126012;1089;104232;-82
2023/04/23 01:10:17;;;;;;;28.77;15.47;;;;;;;8.25;70.87;100456.25;126224;1089;104228;-81
2023/04/23 01:12:46;;;;;;;31.37;15.87;;;;;;;8.25;70.73;100457.14;125767;1089;104321;-81
2023/04/23 01:15:15;;;;;;;29.10;15.57;;;;;;;8.25;71.10;100457.14;125761;1089;104293;-82
2023/04/23 01:17:44;;;;;;;28.10;15.53;;;;;;;8.22;71.77;100456.12;125766;1089;105656;-82
2023/04/23 01:20:13;;;;;;;28.30;15.05;;;;;;;8.18;71.80;100455.09;125853;1089;104235;-81
2023/04/23 01:22:41;;;;;;;26.15;14.00;;;;;;;8.17;71.50;100447.19;125817;1089;104260;-82
2023/04/23 01:25:11;;;;;;;27.33;13.93;;;;;;;8.17;72.02;100445.45;125863;1089;104366;-82
2023/04/23 01:27:40;;;;;;;30.23;14.70;;;;;;;8.20;72.35;100448.20;126636;1089;104252;-82
2023/04/23 01:30:11;;;;;;;26.50;14.20;;;;;;;8.21;72.27;100442.16;127474;1089;102079;-82
2023/04/23 01:32:40;;;;;;;28.67;15.13;;;;;;;8.20;72.02;100442.98;126164;1089;104289;-82
2023/04/23 01:35:12;;;;;;;30.80;14.53;;;;;;;8.16;71.92;100435.81;125811;1089;104245;-82
2023/04/23 01:37:42;;;;;;;30.00;15.47;;;;;;;8.14;71.55;100441.83;126685;1089;104238;-81
2023/04/23 01:40:12;;;;;;;26.90;14.87;;;;;;;8.15;71.61;100440.97;127252;1089;102579;-83
2023/04/23 01:42:40;;;;;;;30.20;16.17;;;;;;;8.14;72.36;100437.48;126895;1089;104162;-81
2023/04/23 01:45:11;;;;;;;28.00;15.30;;;;;;;8.12;71.70;100443.45;126605;1089;104264;-82
2023/04/23 01:47:41;;;;;;;27.83;14.97;;;;;;;8.10;72.00;100440.77;126697;1089;104178;-81
2023/04/23 01:50:10;;;;;;;29.73;15.63;;;;;;;8.11;71.94;100432.12;126739;1089;102592;-82
2023/04/23 01:52:40;;;;;;;29.00;15.50;;;;;;;8.14;72.54;100436.59;126243;1090;104616;-81
2023/04/23 01:55:09;;;;;;;28.80;15.70;;;;;;;8.14;72.81;100442.70;126303;1089;104264;-81
2023/04/23 01:57:38;;;;;;;26.40;15.27;;;;;;;8.16;72.65;100440.16;125923;1089;104184;-81
2023/04/23 02:00:10;;;;;;;28.70;15.10;;;;;;;8.18;72.18;100439.41;127194;1089;104347;-81
2023/04/23 02:02:43;;;;;;;26.97;14.47;;;;;;;8.19;72.82;100441.18;127084;1088;102047;-82
2023/04/23 02:05:15;;;;;;;28.80;14.40;;;;;;;8.20;72.94;100447.33;127003;1089;101980;-81
2023/04/23 02:07:44;;;;;;;28.33;13.87;;;;;;;8.22;72.59;100443.93;126730;1089;104367;-81
2023/04/23 02:10:13;;;;;;;27.50;14.47;;;;;;;8.22;72.89;100450.89;126646;1089;104286;-81
2023/04/23 02:12:43;;;;;;;26.90;14.47;;;;;;;8.20;73.12;100455.16;126380;1088;104216;-81
2023/04/23 02:15:12;;;;;;;28.07;15.70;;;;;;;8.14;74.08;100453.16;126708;1089;104250;-82
2023/04/23 02:17:40;;;;;;;28.20;15.17;;;;;;;8.10;73.54;100453.84;126289;1089;104296;-81
2023/04/23 02:20:10;;;;;;;28.50;15.13;;;;;;;8.04;73.76;100450.95;125953;1089;104162;-81
2023/04/23 02:22:41;;;;;;;27.70;15.60;;;;;;;8.01;73.46;100448.20;125874;1089;104158;-81
2023/04/23 02:25:10;;;;;;;29.10;15.33;;;;;;;7.99;74.30;100448.13;125853;1089;104232;-81
2023/04/23 02:27:38;;;;;;;28.80;14.60;;;;;;;7.96;73.60;100450.60;125709;1089;104384;-81
2023/04/23 02:30:11;;;;;;;26.27;14.80;;;;;;;7.88;74.57;100454.59;125674;1089;104238;-82
2023/04/23 02:32:41;;;;;;;30.53;16.37;;;;;;;7.79;75.05;100456.78;125704;1088;104228;-81
2023/04/23 02:35:11;;;;;;;28.40;14.27;;;;;;;7.71;74.52;100456.42;125613;1089;104236;-81
2023/04/23 02:37:40;;;;;;;28.17;14.70;;;;;;;7.67;74.73;100454.52;125688;1089;104809;-81
2023/04/23 02:40:11;;;;;;;28.23;15.00;;;;;;;7.65;74.88;100456.14;125607;1089;104411;-81
2023/04/23 02:42:39;;;;;;;28.67;14.97;;;;;;;7.64;75.11;100457.87;126063;1089;104226;-81
2023/04/23 02:45:10;;;;;;;26.83;14.97;;;;;;;7.65;74.91;100458.75;125895;1089;104234;-81
2023/04/23 02:47:38;;;;;;;27.00;14.30;;;;;;;7.64;75.81;100457.87;125958;1089;104235;-81
2023/04/23 02:50:09;;;;;;;27.67;15.33;;;;;;;7.64;75.05;100462.20;126283;1089;104327;-82
2023/04/23 02:52:37;;;;;;;25.83;13.73;;;;;;;7.67;75.38;100460.63;125744;1089;104389;-81
2023/04/23 02:55:08;;;;;;;25.70;13.43;;;;;;;7.68;75.08;100458.89;125972;1089;104347;-82
2023/04/23 02:57:38;;;;;;;25.13;12.07;;;;;;;7.69;75.23;100463.30;126121;1089;104277;-82
2023/04/23 03:00:11;;;;;;;23.47;12.53;;;;;;;7.70;75.69;100468.59;125975;1088;104229;-81
2023/04/23 03:02:42;;;;;;;25.23;13.50;;;;;;;7.71;75.69;100466.88;125731;1089;104238;-82
2023/04/23 03:05:11;;;;;;;23.30;12.03;;;;;;;7.73;75.55;100473.09;125677;1090;104225;-81
2023/04/23 03:07:40;;;;;;;26.07;13.20;;;;;;;7.76;75.17;100473.23;125704;1089;104366;-81
2023/04/23 03:10:10;;;;;;;24.43;12.97;;;;;;;7.77;75.26;100474.11;125747;1089;104242;-82
2023/04/23 03:12:39;;;;;;;26.17;12.43;;;;;;;7.78;75.82;100473.30;125905;1089;104203;-81
2023/04/23 03:15:10;;;;;;;23.20;12.03;;;;;;;7.78;75.42;100465.46;125586;1089;104341;-82
2023/04/23 03:17:39;;;;;;;23.03;12.50;;;;;;;7.77;76.02;100474.11;125885;1090;104286;-82
2023/04/23 03:20:10;;;;;;;27.37;13.47;;;;;;;7.74;75.59;100472.23;125924;1089;104299;-81
2023/04/23 03:22:39;;;;;;;25.07;12.30;;;;;;;7.75;75.35;100476.66;125745;1089;104318;-82
2023/04/23 03:25:09;;;;;;;25.03;12.53;;;;;;;7.77;75.63;100477.61;125613;1089;104231;-81
2023/04/23 03:27:39;;;;;;;22.67;12.10;;;;;;;7.80;75.35;100482.97;125671;1089;104234;-81
2023/04/23 03:30:10;;;;;;;25.87;12.93;;;;;;;7.82;75.79;100485.66;125826;1089;104341;-81
2023/04/23 03:32:38;;;;;;;22.93;12.57;;;;;;;7.83;76.00;100483.12;125994;1089;104351;-82
2023/04/23 03:35:09;;;;;;;27.07;13.63;;;;;;;7.85;75.58;100481.49;125895;1089;104232;-81
2023/04/23 03:37:38;;;;;;;22.90;12.60;;;;;;;7.92;76.11;100482.66;126029;1089;104322;-81
2023/04/23 03:40:09;;;;;;;26.23;12.73;;;;;;;7.98;75.83;100487.25;126111;1089;104261;-81
2023/04/23 03:42:40;;;;;;;25.03;12.70;;;;;;;8.00;75.55;100486.52;126314;1089;104520;-81
2023/04/23 03:45:12;;;;;;;24.37;12.87;;;;;;;8.05;76.12;100484.98;125929;1089;104276;-81
2023/04/23 03:47:41;;;;;;;24.00;13.43;;;;;;;8.10;75.85;100493.04;126227;1090;104216;-81
2023/04/23 03:50:11;;;;;;;22.37;12.27;;;;;;;8.15;76.19;100490.64;127017;1089;104168;-80
2023/04/23 03:52:41;;;;;;;27.27;13.97;;;;;;;8.19;75.97;100496.08;126687;1089;102352;-81
2023/04/23 03:55:12;;;;;;;24.00;12.27;;;;;;;8.22;75.82;100498.83;125914;1089;104325;-81
2023/04/23 03:57:45;;;;;;;25.93;12.87;;;;;;;8.27;75.74;100499.95;126069;1089;104241;-81
2023/04/23 04:00:25;;;;;;;28.30;12.93;;;;;;;8.31;75.65;100500.09;126478;1089;104165;-81
2023/04/23 04:02:54;;;;;;;25.07;12.17;;;;;;;8.32;75.89;100497.55;126482;1089;102009;-80
2023/04/23 04:05:24;;;;;;;23.57;12.03;;;;;;;8.33;76.12;100498.42;126384;1089;104292;-81
2023/04/23 04:07:55;;;;;;;23.90;12.33;;;;;;;8.32;75.86;100507.08;126663;1089;104273;-81
2023/04/23 04:10:25;;;;;;;23.77;12.10;;;;;;;8.33;75.66;100503.66;127839;1089;101739;-81
2023/04/23 04:12:55;;;;;;;24.80;12.43;;;;;;;8.34;76.32;100502.84;127659;1089;104177;-81
2023/04/23 04:15:23;;;;;;;23.33;11.80;;;;;;;8.39;75.95;100507.42;128006;1089;101706;-81
2023/04/23 04:17:52;;;;;;;26.30;12.63;;;;;;;8.44;76.59;100515.52;127455;1089;104193;-81
2023/04/23 04:20:30;;;;;;;23.90;12.77;;;;;;;8.51;76.14;100512.35;127271;1089;104365;31
2023/04/23 04:22:59;;;;;;;25.63;13.13;;;;;;;8.54;75.96;100517.72;127942;1089;104244;-79
2023/04/23 04:25:28;;;;;;;23.73;11.80;;;;;;;8.57;76.68;100520.47;128033;1086;103787;-80
2023/04/23 04:27:57;;;;;;;25.20;12.80;;;;;;;8.59;77.15;100521.42;128008;1087;102367;-80
2023/04/23 04:30:26;;;;;;;24.63;12.60;;;;;;;8.60;76.31;100525.84;128200;1088;101806;-79
2023/04/23 04:32:54;;;;;;;22.70;12.20;;;;;;;8.62;76.20;100526.79;127778;1088;104180;-80
2023/04/23 04:35:23;;;;;;;23.37;12.50;;;;;;;8.68;76.37;100530.48;128272;1089;101682;-79
2023/04/23 04:37:52;;;;;;;28.93;13.37;;;;;;;8.72;76.97;100528.08;128159;1086;102491;-79
2023/04/23 04:40:21;;;;;;;24.90;12.60;;;;;;;8.79;77.06;100535.37;128319;1088;101623;-78
2023/04/23 04:42:51;;;;;;;25.67;11.67;;;;;;;8.86;76.26;100525.17;127817;1089;104193;-79
2023/04/23 04:45:20;;;;;;;25.77;12.37;;;;;;;8.94;76.67;100534.23;128122;1089;104338;-78
2023/04/23 04:47:49;;;;;;;23.53;12.20;;;;;;;8.96;76.46;100530.88;128373;1089;104050;-80
2023/04/23 04:50:17;;;;;;;25.97;12.90;;;;;;;8.99;76.37;100533.62;127769;1086;102894;-78
2023/04/23 04:52:46;;;;;;;23.00;11.63;;;;;;;9.02;76.35;100535.45;127829;1089;102080;-83
2023/04/23 04:55:15;;;;;;;25.70;12.23;;;;;;;9.08;76.52;100542.68;128170;1088;102249;-79
2023/04/23 04:57:43;;;;;;;23.67;11.80;;;;;;;9.13;77.01;100549.00;126821;1089;104235;-79
2023/04/23 05:00:22;;;;;;;21.87;11.80;;;;;;;9.15;76.38;100544.74;126823;1089;104180;-78
2023/04/23 05:02:51;;;;;;;22.93;11.60;;;;;;;9.19;76.61;100541.40;127108;1088;110328;-77
2023/04/23 05:05:21;;;;;;;22.37;11.67;;;;;;;9.26;77.02;100553.05;126514;1089;104293;-79
2023/04/23 05:07:50;;;;;;;22.00;11.53;;;;;;;9.30;76.73;100544.47;126082;1089;104242;-78
2023/04/23 05:10:19;;;;;;;23.53;11.10;;;;;;;9.34;76.71;100551.63;126491;1089;104334;-78
2023/04/23 05:12:50;;;;;;;22.70;11.47;;;;;;;9.39;76.84;100547.47;125489;1089;104289;-80
2023/04/23 05:15:19;;;;;;;21.70;11.40;;;;;;;9.41;76.36;100548.45;125531;1089;104194;-80
2023/04/23 05:17:49;;;;;;;22.10;10.67;;;;;;;9.44;76.82;100555.52;125642;1089;104267;-81
2023/04/23 05:20:17;;;;;;;21.27;10.50;;;;;;;9.49;76.83;100556.59;125845;1088;104155;-80
2023/04/23 05:22:46;;;;;;;19.10;10.37;;;;;;;9.54;76.89;100555.95;125858;1089;104197;-80
2023/04/23 05:25:15;;;;;;;20.17;10.83;;;;;;;9.61;76.77;100549.23;125691;1089;104159;-80
2023/04/23 05:27:43;;;;;;;20.37;10.83;;;;;;;9.68;76.94;100553.02;125517;1089;104343;-81
2023/04/23 05:30:12;;;;;;;23.07;10.67;;;;;;;9.73;76.17;100561.06;125612;1089;104174;-81
2023/04/23 05:32:41;;;;;;;23.00;10.87;;;;;;;9.79;76.71;100558.69;125635;1089;105620;-81
2023/04/23 05:35:10;;;;;;;22.83;10.63;;;;;;;9.86;76.67;100558.98;125623;1090;104215;-81
2023/04/23 05:37:38;;;;;;;19.00;9.90;;;;;;;9.94;76.42;100555.75;125673;1089;104153;-81
2023/04/23 05:40:09;;;;;;;20.83;10.40;;;;;;;9.99;75.91;100552.48;125721;1089;104213;-81
2023/04/23 05:42:37;;;;;;;22.20;11.13;;;;;;;10.09;76.60;100561.59;125731;1089;104354;-81
2023/04/23 05:45:08;;;;;;;20.83;9.67;;;;;;;10.16;76.05;100565.34;125635;1089;104257;-81
2023/04/23 05:47:37;;;;;;;23.03;10.57;;;;;;;10.21;76.60;100559.45;125661;1089;104380;-81
2023/04/23 05:50:10;;;;;;;19.47;9.53;;;;;;;10.27;76.33;100561.42;125618;1089;104302;-80
2023/04/23 05:52:38;;;;;;;21.30;10.03;;;;;;;10.34;76.29;100559.95;125572;1089;104340;-81
2023/04/23 05:55:08;;;;;;;21.93;9.53;;;;;;;10.36;75.52;100564.42;125549;1089;104209;-80
2023/04/23 05:57:38;;;;;;;20.57;9.50;;;;;;;10.40;75.37;100558.44;125572;1089;104168;-80
2023/04/23 06:00:10;;;;;;;20.13;9.70;;;;;;;10.42;75.30;100558.49;125526;1089;104206;-81
2023/04/23 06:02:42;;;;;;;19.60;9.47;;;;;;;10.47;74.98;100563.91;125634;1089;104241;-81
2023/04/23 06:05:11;;;;;;;19.63;9.13;;;;;;;10.55;75.33;100562.45;125933;1089;104346;-80
2023/04/23 06:07:40;;;;;;;20.17;10.30;;;;;;;10.62;74.87;100564.48;125952;1089;104209;-80
2023/04/23 06:10:10;;;;;;;19.97;9.73;;;;;;;10.71;74.89;100566.55;125678;1089;104338;-80
2023/04/23 06:12:40;;;;;;;19.60;9.30;;;;;;;10.78;74.81;100568.54;125692;1089;104213;-81
2023/04/23 06:15:10;;;;;;;20.47;9.07;;;;;;;10.86;74.65;100561.86;125521;1089;104299;-81
2023/04/23 06:17:40;;;;;;;17.93;8.50;;;;;;;10.96;74.80;100570.94;125629;1089;104226;-81
2023/04/23 06:20:10;;;;;;;20.93;9.53;;;;;;;11.05;74.18;100573.89;125661;1089;104226;-81
2023/04/23 06:22:39;;;;;;;20.63;9.50;;;;;;;11.17;74.66;100572.52;125838;1089;104276;-81
2023/04/23 06:25:09;;;;;;;19.70;9.03;;;;;;;11.27;74.69;100572.01;125791;1089;104726;-81
2023/04/23 06:27:37;;;;;;;17.70;8.97;;;;;;;11.40;74.65;100573.30;125763;1089;104196;-80
2023/04/23 06:30:11;;;;;;;;;;;;;;;11.48;73.47;100572.73;125674;1089;104276;-81
2023/04/23 06:32:40;;;;;;;19.23;8.63;;;;;;;11.61;74.32;100568.77;125917;1090;104299;-79
2023/04/23 06:35:09;;;;;;;20.90;8.20;;;;;;;11.75;73.75;100569.20;126034;1089;104283;-81
2023/04/23 06:37:38;;;;;;;16.77;7.07;;;;;;;11.90;72.77;100566.16;125752;1089;104299;-81
2023/04/23 06:40:08;;;;;;;16.80;7.50;;;;;;;12.05;72.32;100576.30;125666;1089;104332;-81
2023/04/23 06:42:37;;;;;;;15.40;7.37;;;;;;;12.16;72.69;100574.89;125961;1088;104702;-80
2023/04/23 06:45:30;;;;;;;15.43;6.77;;;;;;;12.29;72.68;100567.36;125346;1089;104248;-81
2023/04/23 06:47:59;;;;;;;16.20;7.50;;;;;;;12.47;72.27;100565.27;125621;1089;104232;-80
2023/04/23 06:50:28;;;;;;;17.47;7.60;;;;;;;12.63;72.05;100574.50;125547;1089;104271;-82
2023/04/23 06:52:56;;;;;;;16.57;7.90;;;;;;;12.85;71.32;100568.08;125687;1089;104242;-82
2023/04/23 06:55:25;;;;;;;16.43;7.60;;;;;;;13.01;71.59;100565.87;125531;1089;104257;-81
2023/04/23 06:57:53;;;;;;;16.00;7.40;;;;;;;13.12;71.33;100574.97;125739;1089;104287;-81
2023/04/23 07:00:22;;;;;;;20.53;7.80;;;;;;;13.22;71.63;100570.83;125791;1089;104263;-80
2023/04/23 07:02:51;;;;;;;16.57;8.03;;;;;;;13.41;70.11;100567.83;125776;1089;104254;-81
2023/04/23 07:05:19;;;;;;;16.63;8.07;;;;;;;13.57;70.46;100568.20;125601;1089;104240;-81
2023/04/23 07:07:48;;;;;;;15.63;7.93;;;;;;;13.75;69.74;100570.41;125727;1089;104221;-81
2023/04/23 07:10:17;;;;;;;16.57;7.77;;;;;;;13.84;70.24;100568.87;126123;1089;101998;-80
2023/04/23 07:12:45;;;;;;;18.63;7.90;;;;;;;13.92;71.44;100573.45;125571;1089;104157;-81
2023/04/23 07:15:14;;;;;;;17.63;8.03;;;;;;;14.04;69.37;100568.45;125604;1089;104228;-80
2023/04/23 07:17:43;;;;;;;21.00;8.43;;;;;;;14.22;69.39;100565.32;125765;1089;104213;-81
2023/04/23 07:20:11;;;;;;;17.57;7.67;;;;;;;14.35;68.84;100570.02;125902;1089;104219;-80
2023/04/23 07:22:40;;;;;;;21.57;8.60;;;;;;;14.45;69.58;100565.81;125942;1089;104213;-81
2023/04/23 07:25:09;;;;;;;18.77;8.00;;;;;;;14.54;69.16;100562.48;125614;1089;104229;-81
2023/04/23 07:27:38;;;;;;;18.97;8.73;;;;;;;14.79;69.51;100566.53;125585;1088;104530;-81
2023/04/23 07:30:09;;;;;;;17.93;9.00;;;;;;;15.00;70.13;100560.75;125577;1089;104378;-82
2023/04/23 07:32:37;;;;;;;18.43;8.30;;;;;;;15.16;69.39;100564.59;125606;1089;104264;-82
2023/04/23 07:35:09;;;;;;;17.63;8.03;;;;;;;15.38;69.41;100555.28;125511;1089;104366;-82
2023/04/23 07:37:37;;;;;;;18.33;8.73;;;;;;;15.63;69.96;100563.62;125621;1089;104375;-82
2023/04/23 07:40:08;;;;;;;19.47;8.30;;;;;;;15.79;68.92;100560.36;125679;1089;104241;-80
2023/04/23 07:42:38;;;;;;;20.50;8.47;;;;;;;15.93;67.62;100559.70;125726;1089;104297;-81
2023/04/23 07:45:10;;;;;;;20.27;9.13;;;;;;;16.01;67.38;100552.74;125805;1089;104301;-80
2023/04/23 07:47:38;;;;;;;18.03;9.07;;;;;;;16.05;67.65;100554.58;125951;1089;104739;-81
2023/04/23 07:50:09;;;;;;;19.67;9.37;;;;;;;16.08;67.61;100557.27;125676;1089;104260;-82
2023/04/23 07:52:37;;;;;;;19.13;8.70;;;;;;;16.11;66.81;100557.31;125824;1089;104213;-80
2023/04/23 07:55:08;;;;;;;19.30;9.03;;;;;;;16.24;67.01;100552.19;125640;1089;104215;-80
2023/04/23 07:57:37;;;;;;;19.20;9.30;;;;;;;16.52;67.72;100556.95;125967;1089;104289;-80
2023/04/23 08:00:08;;;;;;;19.63;8.63;;;;;;;16.56;66.87;100551.69;125684;1089;104366;-80
2023/04/23 08:02:43;;;;;;;18.80;8.03;;;;;;;16.57;65.86;100541.12;125889;1088;104318;-80
2023/04/23 08:05:11;;;;;;;15.40;7.40;;;;;;;16.55;63.92;100550.81;125886;1089;104383;-80
2023/04/23 08:07:40;;;;;;;17.03;7.50;;;;;;;16.65;63.96;100547.38;125881;1089;104267;-80
2023/04/23 08:10:09;;;;;;;17.93;8.33;;;;;;;16.72;64.10;100551.02;126719;1089;104245;-78
2023/04/23 08:12:38;;;;;;;16.40;8.10;;;;;;;16.78;63.81;100548.44;126200;1089;104245;-81
2023/04/23 08:15:09;;;;;;;17.63;8.20;;;;;;;16.89;63.43;100545.91;125798;1089;104366;-81
2023/04/23 08:17:40;;;;;;;15.25;7.17;;;;;;;17.06;62.68;100552.30;125667;1089;104289;-80
2023/04/23 08:20:10;;;;;;;14.97;7.10;;;;;;;17.03;62.28;100546.05;125811;1089;104232;-80
2023/04/23 08:22:39;;;;;;;12.83;7.00;;;;;;;16.97;59.26;100543.34;125653;1089;104235;-80
2023/04/23 08:25:09;;;;;;;15.10;7.93;;;;;;;17.00;59.96;100538.98;125717;1089;104196;-80
2023/04/23 08:27:37;;;;;;;15.13;6.60;;;;;;;17.04;60.64;100538.11;125754;1089;104232;-80
2023/04/23 08:30:08;;;;;;;13.17;6.80;;;;;;;16.97;59.29;100545.98;125764;1089;104172;-79
2023/04/23 08:32:39;;;;;;;11.63;6.27;;;;;;;16.93;57.55;100547.73;125764;1089;104281;-79
2023/04/23 08:35:09;;;;;;;12.70;6.10;;;;;;;16.99;57.92;100536.31;125685;1089;105510;-79
2023/04/23 08:37:38;;;;;;;16.87;5.97;;;;;;;17.02;58.16;100538.99;125569;1089;104367;-79
2023/04/23 08:40:09;;;;;;;13.30;6.10;;;;;;;17.40;58.39;100538.44;125458;1089;104301;-79
2023/04/23 08:42:43;;;;;;;11.23;6.07;;;;;;;17.60;58.86;100527.98;125622;1089;104209;-79
2023/04/23 08:45:12;;;;;;;11.77;5.67;;;;;;;17.67;57.26;100535.13;125665;1089;104335;-79
2023/04/23 08:47:42;;;;;;;13.70;5.73;;;;;;;17.61;57.81;100529.78;125630;1089;110612;-79
2023/04/23 08:50:12;;;;;;;13.20;4.93;;;;;;;17.51;56.75;100525.27;125723;1089;104210;-80
2023/04/23 08:52:42;;;;;;;8.73;5.00;;;;;;;17.50;51.34;100531.44;125648;1089;104304;-81
2023/04/23 08:55:20;;;;;;;10.40;4.97;;;;;;;17.40;54.07;100519.88;125549;1089;104358;-82
2023/04/23 08:57:50;;;;;;;11.07;4.77;;;;;;;17.51;55.05;100523.48;125561;1089;104279;-79
2023/04/23 09:00:21;;;;;;;12.07;5.60;;;;;;;17.76;54.01;100521.02;125691;1089;104244;-81
2023/04/23 09:02:50;;;;;;;11.63;5.70;;;;;;;17.89;51.68;100520.26;125648;1089;104268;-79
2023/04/23 09:05:18;;;;;;;10.97;5.57;;;;;;;18.02;53.74;100509.71;125624;1089;104325;-80
2023/04/23 09:07:47;;;;;;;9.67;5.43;;;;;;;18.09;54.07;100508.84;125517;1090;104337;-80
2023/04/23 09:10:15;;;;;;;14.23;6.23;;;;;;;18.24;54.98;100510.70;125481;1089;104354;-79
2023/04/23 09:12:45;;;;;;;13.10;6.30;;;;;;;18.44;53.37;100510.78;125630;1089;104353;-79
2023/04/23 09:15:14;;;;;;;13.13;6.50;;;;;;;18.49;53.82;100509.02;125546;1089;104178;-80
2023/04/23 09:17:46;;;;;;;9.90;5.93;;;;;;;18.60;53.63;100507.27;125500;1089;104268;-79
2023/04/23 09:20:14;;;;;;;12.00;6.07;;;;;;;18.71;53.28;100506.43;125455;1089;104369;-79
2023/04/23 09:22:45;;;;;;;14.73;5.80;;;;;;;18.89;52.22;100506.50;125467;1087;104676;-78
2023/04/23 09:25:16;;;;;;;11.57;5.60;;;;;;;19.12;52.82;100503.88;125535;1089;104333;-77
2023/04/23 09:27:45;;;;;;;9.13;5.20;;;;;;;19.39;52.81;100492.33;125490;1089;104280;-80
2023/04/23 09:30:15;;;;;;;13.10;6.15;;;;;;;19.56;52.54;100489.66;125372;1089;104231;-80
2023/04/23 09:32:45;;;;;;;13.07;5.70;;;;;;;19.64;49.97;100480.78;125716;1089;104697;-81
2023/04/23 09:35:16;;;;;;;12.20;5.60;;;;;;;19.58;49.64;100486.99;125657;1089;104228;-81
2023/04/23 09:37:47;;;;;;;11.77;5.80;;;;;;;19.60;50.62;100481.67;125679;1089;104247;-81
2023/04/23 09:40:17;;;;;;;14.23;6.30;;;;;;;19.65;50.70;100478.13;125696;1089;104273;-79
2023/04/23 09:42:49;;;;;;;13.97;6.30;;;;;;;19.72;50.01;100471.88;125527;1089;104232;-81
2023/04/23 09:45:18;;;;;;;11.53;6.43;;;;;;;19.82;49.70;100462.14;125623;1089;104338;-80
2023/04/23 09:47:51;;;;;;;12.70;6.67;;;;;;;19.98;49.98;100468.30;125447;1089;104235;-81
2023/04/23 09:50:30;;;;;;;12.27;5.97;;;;;;;19.90;49.90;100459.46;125514;1089;104228;-81
2023/04/23 09:52:59;;;;;;;11.50;5.70;;;;;;;19.94;48.90;100466.53;125582;1089;104360;-81
2023/04/23 09:55:36;;;;;;;12.80;6.83;;;;;;;19.89;48.53;100460.34;125539;1089;104232;-80
2023/04/23 09:58:05;;;;;;;11.40;5.80;;;;;;;19.81;48.74;100460.36;125366;1089;104338;-80
2023/04/23 10:00:38;;;;;;;14.30;5.95;;;;;;;19.88;48.46;100462.12;125490;1089;104366;-79
2023/04/23 10:03:08;;;;;;;11.20;5.83;;;;;;;20.03;49.91;100457.63;125648;1088;104155;-80
2023/04/23 10:05:39;;;;;;;10.17;5.53;;;;;;;20.05;48.70;100461.16;125704;1089;104267;-81
2023/04/23 10:08:08;;;;;;;13.27;6.13;;;;;;;20.02;46.50;100456.72;125580;1089;104209;-82
2023/04/23 10:10:37;;;;;;;12.40;5.33;;;;;;;20.00;46.70;100455.86;125687;1089;104231;-82
2023/04/23 10:13:08;;;;;;;9.93;5.30;;;;;;;20.03;46.52;100447.85;125581;1089;104363;-79
2023/04/23 10:15:37;;;;;;;10.60;5.30;;;;;;;20.05;46.33;100446.06;125483;1089;104241;-81
2023/04/23 10:18:06;;;;;;;9.17;4.87;;;;;;;20.10;46.70;100448.70;125642;1089;104426;-80
2023/04/23 10:20:36;;;;;;;7.97;4.50;;;;;;;20.27;46.28;100448.62;125463;1087;104212;-83
2023/04/23 10:23:07;;;;;;;9.77;4.90;;;;;;;20.47;43.88;100448.52;125730;1089;104290;-80
2023/04/23 10:25:38;;;;;;;9.33;4.90;;;;;;;20.60;44.36;100449.33;125630;1089;102295;-83
2023/04/23 10:28:11;;;;;;;8.87;4.90;;;;;;;20.60;43.73;100449.33;125822;1089;104290;-83
2023/04/23 10:30:40;;;;;;;8.33;4.77;;;;;;;20.61;43.17;100449.31;125593;1089;104263;-82
2023/04/23 10:33:10;;;;;;;11.37;5.17;;;;;;;20.62;43.68;100439.56;125828;1089;104204;-81
2023/04/23 10:35:39;;;;;;;9.40;4.90;;;;;;;20.64;43.95;100438.67;125672;1089;104350;-79
2023/04/23 10:38:08;;;;;;;9.17;4.90;;;;;;;20.60;43.65;100436.91;125641;1089;104300;-80
2023/04/23 10:40:40;;;;;;;8.93;4.90;;;;;;;20.67;42.53;100436.90;125618;1089;104232;-82
2023/04/23 10:43:09;;;;;;;13.45;5.20;;;;;;;20.75;42.51;100433.27;125602;1089;104235;-79
2023/04/23 10:45:37;;;;;;;9.80;4.70;;;;;;;20.79;42.53;100434.15;125601;1089;104308;-82
2023/04/23 10:48:07;;;;;;;9.45;5.35;;;;;;;20.67;41.97;100435.11;125594;1089;104373;-79
2023/04/23 10:50:36;;;;;;;10.03;4.77;;;;;;;20.73;42.59;100426.20;125915;1089;104206;-81
2023/04/23 10:53:17;;;;;;;8.40;4.80;;;;;;;20.75;41.83;100430.59;125582;1089;104232;-79
2023/04/23 10:55:46;;;;;;;10.53;5.33;;;;;;;20.72;42.83;100432.41;125570;1089;104309;-79
2023/04/23 10:58:15;;;;;;;9.30;5.00;;;;;;;20.63;42.65;100433.31;125666;1089;104340;-80
2023/04/23 11:00:45;;;;;;;8.47;4.43;;;;;;;20.41;42.68;100436.14;125540;1089;104315;-78
2023/04/23 11:03:38;;;;;;;7.90;4.80;;;;;;;20.28;42.12;100437.09;125691;1089;104343;-81
2023/04/23 11:06:07;;;;;;;8.73;4.83;;;;;;;20.13;43.15;100432.70;125659;1089;104244;-80
2023/04/23 11:08:36;;;;;;;12.83;4.67;;;;;;;20.02;42.17;100437.20;125558;1090;104329;-81
2023/04/23 11:11:08;;;;;;;10.73;4.80;;;;;;;19.87;41.72;100436.38;125557;1089;104239;-81
2023/04/23 11:13:52;;;;;;;11.70;4.70;;;;;;;19.74;41.40;100440.83;125567;1089;104334;-81